Time;durP1;ratioP1;P1;durP2;ratioP2;P2;SDS_P1;SDS_P2;PMS_P1;PMS_P2;Temp;Humidity;BMP_temperature;BMP_pressure;BME280_temperature;BME280_humidity;BME280_pressure;Samples;Min_cycle;Max_cycle;Signal;HPM_P1;HPM_P2
2021/11/20 00:00:33;;;;;;;23.70;20.40;;;;;;;8.61;100.00;99454.73;102348;1316;76582;-75
2021/11/20 00:03:13;;;;;;;23.60;18.50;;;;;;;8.62;100.00;99452.73;102363;1314;69545;-74
2021/11/20 00:05:51;;;;;;;21.60;17.80;;;;;;;8.61;100.00;99445.52;102331;1310;73868;-74
2021/11/20 00:08:18;;;;;;;24.10;17.50;;;;;;;8.60;100.00;99442.70;101902;1316;61343;-75
2021/11/20 00:10:56;;;;;;;19.40;16.60;;;;;;;8.62;100.00;99436.95;102367;1316;61467;-74
2021/11/20 00:13:24;;;;;;;20.80;16.80;;;;;;;8.64;100.00;99433.51;102333;1314;75502;-74
2021/11/20 00:15:53;;;;;;;16.80;14.80;;;;;;;8.63;100.00;99441.83;102381;1314;70562;-74
2021/11/20 00:18:21;;;;;;;18.20;15.60;;;;;;;8.65;100.00;99448.65;102439;1311;73758;-75
2021/11/20 00:20:58;;;;;;;16.70;13.20;;;;;;;8.67;100.00;99449.77;102371;1311;61212;-75
2021/11/20 00:23:30;;;;;;;18.70;14.50;;;;;;;8.69;100.00;99450.75;102337;1310;62398;-75
2021/11/20 00:25:59;;;;;;;16.00;13.60;;;;;;;8.70;100.00;99451.73;102364;1311;75393;-76
2021/11/20 00:28:41;;;;;;;16.40;13.80;;;;;;;8.73;100.00;99459.59;102033;1316;68634;-75
2021/11/20 00:31:17;;;;;;;18.80;13.60;;;;;;;8.76;100.00;99462.23;102212;1317;73575;-76
2021/11/20 00:33:44;;;;;;;17.00;14.30;;;;;;;8.78;100.00;99464.42;102328;1310;61301;-74
2021/11/20 00:36:12;;;;;;;18.20;15.00;;;;;;;8.80;100.00;99461.50;102340;1311;61298;-74
2021/11/20 00:38:40;;;;;;;18.30;14.30;;;;;;;8.84;100.00;99456.14;102323;1317;76735;-74
2021/11/20 00:41:19;;;;;;;16.80;14.10;;;;;;;8.84;100.00;99450.87;102360;1316;67952;-74
2021/11/20 00:43:47;;;;;;;15.70;14.00;;;;;;;8.82;100.00;99449.54;102339;1310;73472;-74
2021/11/20 00:46:16;;;;;;;15.70;14.10;;;;;;;8.81;100.00;99449.77;102303;1313;61396;-74
2021/11/20 00:48:45;;;;;;;14.90;13.30;;;;;;;8.81;100.00;99439.71;102296;1316;62476;-74
2021/11/20 00:51:15;;;;;;;17.00;12.70;;;;;;;8.80;100.00;99437.77;102015;1317;74882;-75
2021/11/20 00:53:44;;;;;;;15.30;13.00;;;;;;;8.79;100.00;99439.95;102350;1317;70685;-75
2021/11/20 00:56:13;;;;;;;14.10;12.60;;;;;;;8.78;100.00;99446.17;102396;1311;73565;-74
2021/11/20 00:58:40;;;;;;;14.60;13.20;;;;;;;8.78;100.00;99444.41;102438;1317;61400;-75
2021/11/20 01:01:10;;;;;;;14.80;12.70;;;;;;;8.78;100.00;99442.29;102480;1317;61319;-74
2021/11/20 01:03:37;;;;;;;14.60;13.00;;;;;;;8.78;100.00;99436.11;102470;1317;74560;-74
2021/11/20 01:06:04;;;;;;;16.70;13.10;;;;;;;8.78;100.00;99436.84;102362;1316;69423;-74
2021/11/20 01:08:39;;;;;;;15.90;13.30;;;;;;;8.77;100.00;99438.29;102386;1310;73483;-74
2021/11/20 01:11:17;;;;;;;16.80;13.20;;;;;;;8.76;100.00;99433.55;102369;1313;61327;-74
2021/11/20 01:13:46;;;;;;;16.60;13.80;;;;;;;8.75;100.00;99438.02;102448;1310;61588;-73
2021/11/20 01:16:14;;;;;;;16.60;14.40;;;;;;;8.75;100.00;99441.77;102483;1310;75169;-73
2021/11/20 01:18:41;;;;;;;15.70;13.90;;;;;;;8.74;100.00;99445.50;102520;1316;70547;-75
2021/11/20 01:21:09;;;;;;;15.90;14.20;;;;;;;8.74;100.00;99442.52;102347;1314;73503;-75
2021/11/20 01:23:36;;;;;;;15.90;14.20;;;;;;;8.73;100.00;99432.29;102527;1310;61619;-75
2021/11/20 01:26:04;;;;;;;15.40;13.80;;;;;;;8.73;100.00;99427.33;102246;1317;61346;-74
2021/11/20 01:28:33;;;;;;;16.90;15.00;;;;;;;8.72;100.00;99430.23;102578;1316;75940;-74
2021/11/20 01:31:04;;;;;;;15.50;13.90;;;;;;;8.71;100.00;99425.10;102708;1316;70560;-74
2021/11/20 01:33:31;;;;;;;;;;;;;;;8.70;100.00;99416.48;103001;1314;74955;-75
2021/11/20 01:35:58;;;;;;;14.30;12.80;;;;;;;8.70;100.00;99415.27;102511;1317;61315;-74
2021/11/20 01:38:26;;;;;;;14.20;12.70;;;;;;;8.69;100.00;99406.45;102799;1318;61199;-74
2021/11/20 01:40:53;;;;;;;13.10;11.60;;;;;;;8.68;100.00;99406.70;103104;1317;76487;-74
2021/11/20 01:43:21;;;;;;;14.50;11.80;;;;;;;8.67;100.00;99407.09;103962;1310;70891;-76
2021/11/20 01:45:47;;;;;;;13.30;11.90;;;;;;;8.67;100.00;99402.70;105020;1316;73476;-74
2021/11/20 01:48:43;;;;;;;12.70;11.40;;;;;;;8.67;100.00;99402.33;105088;1318;59067;-75
2021/11/20 01:51:46;;;;;;;13.20;11.40;;;;;;;8.67;100.00;99397.55;104033;1326;61231;-74
2021/11/20 01:54:45;;;;;;;12.00;9.70;;;;;;;8.67;100.00;99391.15;101060;1326;75708;-75
2021/11/20 01:57:24;;;;;;;11.80;9.70;;;;;;;8.70;100.00;99388.70;100345;1333;69599;-74
2021/11/20 02:00:04;;;;;;;12.20;9.40;;;;;;;8.71;100.00;99386.34;100617;1336;74507;-76
2021/11/20 02:02:49;;;;;;;11.90;10.60;;;;;;;8.71;100.00;99395.73;100606;1334;63119;-76
2021/11/20 02:05:24;;;;;;;12.40;10.40;;;;;;;8.71;100.00;99394.84;100458;1329;62310;-73
2021/11/20 02:08:13;;;;;;;11.50;10.40;;;;;;;8.72;100.00;99398.17;100512;1335;76499;-75
2021/11/20 02:10:55;;;;;;;10.80;9.10;;;;;;;8.71;100.00;99400.31;100545;1330;70589;-76
2021/11/20 02:13:26;;;;;;;10.00;9.00;;;;;;;8.71;100.00;99401.38;100541;1330;73572;-75
2021/11/20 02:16:24;;;;;;;9.40;8.50;;;;;;;8.72;100.00;99401.20;100640;1330;61740;-77
2021/11/20 02:18:55;;;;;;;10.50;9.40;;;;;;;8.72;100.00;99390.39;100485;1342;62509;-75
2021/11/20 02:21:34;;;;;;;10.00;9.00;;;;;;;8.72;100.00;99386.11;101117;1341;74676;-73
2021/11/20 02:24:00;;;;;;;10.10;8.80;;;;;;;8.72;100.00;99392.81;100949;1340;69670;-74
2021/11/20 02:26:27;;;;;;;10.30;8.20;;;;;;;8.73;100.00;99390.27;100581;1342;61363;-73
2021/11/20 02:28:55;;;;;;;10.20;9.20;;;;;;;8.76;100.00;99392.98;100543;1328;61447;-74
2021/11/20 02:31:22;;;;;;;10.70;8.60;;;;;;;8.77;100.00;99395.23;101323;1320;62267;-75
2021/11/20 02:33:50;;;;;;;10.50;9.50;;;;;;;8.76;100.00;99397.02;101770;1320;75426;-75
2021/11/20 02:36:21;;;;;;;9.40;8.50;;;;;;;8.76;100.00;99394.21;101729;1320;70420;-75
2021/11/20 02:39:02;;;;;;;12.40;8.70;;;;;;;8.76;100.00;99391.52;101314;1325;74451;-74
2021/11/20 02:41:32;;;;;;;11.30;9.30;;;;;;;8.77;100.00;99384.24;101662;1319;61229;-74
2021/11/20 02:44:02;;;;;;;9.60;8.50;;;;;;;8.77;100.00;99384.23;101779;1320;61314;-74
2021/11/20 02:46:32;;;;;;;;;;;;;;;8.76;100.00;99383.20;101735;1321;74385;-75
2021/11/20 02:48:59;;;;;;;10.30;8.60;;;;;;;8.76;100.00;99388.02;101295;1324;70577;-74
2021/11/20 02:51:29;;;;;;;10.80;8.10;;;;;;;8.75;100.00;99383.80;101652;1320;73513;-75
2021/11/20 02:54:03;;;;;;;9.60;8.50;;;;;;;8.74;100.00;99391.46;101644;1319;61446;-74
2021/11/20 02:56:37;;;;;;;8.50;7.60;;;;;;;8.74;100.00;99393.27;102108;1314;61508;-74
2021/11/20 02:59:05;;;;;;;8.70;7.90;;;;;;;8.74;100.00;99382.47;101831;1319;74489;-74
2021/11/20 03:01:35;;;;;;;9.10;8.20;;;;;;;8.74;100.00;99382.62;102289;1310;70543;-74
2021/11/20 03:04:08;;;;;;;9.60;7.70;;;;;;;8.75;100.00;99376.20;101926;1317;74083;-74
2021/11/20 03:06:35;;;;;;;9.10;8.30;;;;;;;8.75;100.00;99376.38;102187;1314;61338;-74
2021/11/20 03:09:05;;;;;;;8.80;7.90;;;;;;;8.75;100.00;99379.20;102381;1317;61430;-74
2021/11/20 03:11:33;;;;;;;8.60;7.80;;;;;;;8.76;100.00;99384.84;102337;1316;74683;-73
2021/11/20 03:14:05;;;;;;;8.90;7.80;;;;;;;8.76;100.00;99388.00;101823;1317;69417;-75
2021/11/20 03:16:37;;;;;;;8.70;7.80;;;;;;;8.76;100.00;99386.77;102405;1316;74653;-74
2021/11/20 03:19:06;;;;;;;10.10;7.60;;;;;;;8.77;100.00;99387.42;102294;1317;61433;-74
2021/11/20 03:21:35;;;;;;;9.00;8.10;;;;;;;8.77;100.00;99386.52;102355;1316;62136;-74
2021/11/20 03:24:04;;;;;;;8.70;7.70;;;;;;;8.78;100.00;99390.37;102253;1313;76756;-74
2021/11/20 03:26:32;;;;;;;9.20;8.20;;;;;;;8.80;100.00;99402.02;102243;1317;69964;-74
2021/11/20 03:28:58;;;;;;;8.00;7.20;;;;;;;8.80;100.00;99404.29;102250;1313;72842;-74
2021/11/20 03:31:25;;;;;;;9.00;7.70;;;;;;;8.81;100.00;99412.92;102298;1310;61318;-75
2021/11/20 03:33:52;;;;;;;9.40;8.40;;;;;;;8.81;100.00;99409.77;102305;1317;61620;-75
2021/11/20 03:36:18;;;;;;;9.40;8.50;;;;;;;8.81;100.00;99404.63;102302;1310;76559;-75
2021/11/20 03:38:45;;;;;;;8.70;7.80;;;;;;;8.80;100.00;99406.05;102247;1310;70454;-75
2021/11/20 03:41:14;;;;;;;10.00;8.80;;;;;;;8.80;100.00;99408.34;102305;1317;73108;-75
2021/11/20 03:43:42;;;;;;;10.30;9.00;;;;;;;8.79;100.00;99405.57;102289;1310;61329;-75
2021/11/20 03:46:09;;;;;;;9.50;8.60;;;;;;;8.78;100.00;99402.09;102401;1317;62438;-75
2021/11/20 03:48:36;;;;;;;10.30;8.30;;;;;;;8.77;100.00;99410.27;102315;1317;76363;-75
2021/11/20 03:51:03;;;;;;;9.40;8.40;;;;;;;8.77;100.00;99405.48;102300;1310;70552;-75
2021/11/20 03:53:31;;;;;;;9.80;8.30;;;;;;;8.77;100.00;99400.16;102332;1316;74689;-75
2021/11/20 03:55:59;;;;;;;10.50;9.00;;;;;;;8.77;100.00;99404.09;102307;1316;61296;-74
2021/11/20 03:58:26;;;;;;;10.20;9.20;;;;;;;8.76;100.00;99416.54;102362;1313;61395;-74
2021/11/20 04:00:57;;;;;;;10.20;9.20;;;;;;;8.76;100.00;99420.77;102301;1316;75453;-74
2021/11/20 04:03:24;;;;;;;10.90;9.50;;;;;;;8.76;100.00;99416.00;102290;1311;70614;-75
2021/11/20 04:05:53;;;;;;;11.50;9.60;;;;;;;8.76;100.00;99422.40;102266;1314;72768;-76
2021/11/20 04:08:21;;;;;;;9.80;8.90;;;;;;;8.74;100.00;99420.89;102260;1313;61447;-75
2021/11/20 04:10:50;;;;;;;12.10;10.50;;;;;;;8.73;100.00;99424.13;102335;1311;61250;-75
2021/11/20 04:13:19;;;;;;;10.30;9.00;;;;;;;8.71;100.00;99422.96;102328;1317;75798;-75
2021/11/20 04:15:47;;;;;;;11.60;9.90;;;;;;;8.71;100.00;99423.73;102366;1311;70696;-74
2021/11/20 04:18:13;;;;;;;11.70;10.60;;;;;;;8.69;100.00;99431.27;102360;1311;74526;-74
2021/11/20 04:20:41;;;;;;;11.20;10.10;;;;;;;8.67;100.00;99434.91;102285;1313;61324;-74
2021/11/20 04:23:09;;;;;;;12.00;10.80;;;;;;;8.65;100.00;99442.80;102363;1310;62066;-75
2021/11/20 04:25:37;;;;;;;12.90;11.70;;;;;;;8.63;100.00;99437.26;102268;1317;75481;-75
2021/11/20 04:28:04;;;;;;;12.20;11.00;;;;;;;8.60;100.00;99434.41;102174;1314;69513;-75
2021/11/20 04:30:31;;;;;;;13.30;12.10;;;;;;;8.55;100.00;99434.98;102344;1310;73500;-75
2021/11/20 04:32:58;;;;;;;12.20;11.00;;;;;;;8.52;100.00;99431.95;102277;1310;61342;-75
2021/11/20 04:35:26;;;;;;;12.80;11.60;;;;;;;8.50;100.00;99444.13;102279;1313;62053;-74
2021/11/20 04:37:54;;;;;;;11.80;10.70;;;;;;;8.47;100.00;99437.55;102201;1313;75491;-74
2021/11/20 04:40:22;;;;;;;13.40;12.20;;;;;;;8.44;100.00;99434.15;102089;1313;213259;-75
2021/11/20 04:42:48;;;;;;;13.70;11.70;;;;;;;8.42;100.00;99441.00;102286;1313;74485;-75
2021/11/20 04:45:18;;;;;;;12.80;11.60;;;;;;;8.39;100.00;99448.19;102321;1310;61329;-74
2021/11/20 04:47:46;;;;;;;13.80;12.40;;;;;;;8.38;100.00;99446.45;102376;1313;61920;-75
2021/11/20 04:50:14;;;;;;;14.70;13.20;;;;;;;8.37;100.00;99445.80;102035;1317;76517;-75
2021/11/20 04:52:41;;;;;;;14.80;13.00;;;;;;;8.35;100.00;99448.00;102388;1313;70556;-74
2021/11/20 04:55:11;;;;;;;15.30;13.70;;;;;;;8.33;100.00;99441.73;102471;1313;73575;-74
2021/11/20 04:57:38;;;;;;;15.70;14.00;;;;;;;8.33;100.00;99440.70;102408;1310;61951;-75
2021/11/20 05:00:12;;;;;;;15.40;13.80;;;;;;;8.31;100.00;99440.61;102308;1313;61394;-76
2021/11/20 05:02:39;;;;;;;14.90;12.80;;;;;;;8.29;100.00;99441.95;102341;1313;76601;-75
2021/11/20 05:05:06;;;;;;;15.90;14.40;;;;;;;8.28;100.00;99446.95;102328;1314;69864;-75
2021/11/20 05:07:33;;;;;;;15.00;13.40;;;;;;;8.28;100.00;99445.20;102277;1314;74414;-74
2021/11/20 05:10:01;;;;;;;15.60;13.90;;;;;;;8.27;100.00;99445.95;102319;1317;61299;-75
2021/11/20 05:12:27;;;;;;;16.50;12.50;;;;;;;8.27;100.00;99448.45;102069;1313;61467;-75
2021/11/20 05:14:54;;;;;;;16.40;13.70;;;;;;;8.26;100.00;99453.27;101871;1316;73631;-75
2021/11/20 05:17:21;;;;;;;15.40;13.90;;;;;;;8.25;100.00;99446.08;102288;1310;68616;-75
2021/11/20 05:19:47;;;;;;;16.00;14.40;;;;;;;8.23;100.00;99448.08;101920;1314;74225;-74
2021/11/20 05:22:14;;;;;;;17.50;15.70;;;;;;;8.22;100.00;99449.90;102334;1311;61400;-75
2021/11/20 05:24:40;;;;;;;16.40;14.80;;;;;;;8.21;100.00;99450.84;102267;1311;62553;-75
2021/11/20 05:27:08;;;;;;;18.20;16.50;;;;;;;8.20;100.00;99452.14;102273;1310;75505;-74
2021/11/20 05:29:48;;;;;;;17.00;15.30;;;;;;;8.18;100.00;99460.73;102247;1314;69494;-75
2021/11/20 05:32:15;;;;;;;18.10;14.40;;;;;;;8.15;100.00;99456.61;102289;1311;74598;-75
2021/11/20 05:34:41;;;;;;;16.40;14.80;;;;;;;8.13;100.00;99451.08;102275;1311;61411;-75
2021/11/20 05:37:08;;;;;;;17.90;15.60;;;;;;;8.10;100.00;99460.05;102248;1318;61367;-74
2021/11/20 05:39:35;;;;;;;18.10;16.30;;;;;;;8.09;100.00;99459.92;102276;1311;76430;-75
2021/11/20 05:42:02;;;;;;;16.60;14.90;;;;;;;8.07;100.00;99455.98;102294;1310;70466;-75
2021/11/20 05:44:29;;;;;;;20.80;17.20;;;;;;;8.04;100.00;99450.64;102396;1313;74563;-75
2021/11/20 05:46:59;;;;;;;17.00;15.30;;;;;;;8.02;100.00;99452.87;102291;1310;61257;-75
2021/11/20 05:49:31;;;;;;;18.20;16.50;;;;;;;8.00;100.00;99459.87;102284;1310;62102;-75
2021/11/20 05:51:59;;;;;;;19.00;17.10;;;;;;;7.98;100.00;99457.12;102258;1313;75573;-74
2021/11/20 05:54:26;;;;;;;17.90;16.00;;;;;;;7.97;100.00;99456.11;102320;1313;70291;-75
2021/11/20 05:56:55;;;;;;;19.20;17.20;;;;;;;7.96;100.00;99468.04;102222;1311;73544;-74
2021/11/20 05:59:23;;;;;;;19.40;17.50;;;;;;;7.96;100.00;99477.59;102394;1314;61326;-74
2021/11/20 06:01:50;;;;;;;18.50;16.70;;;;;;;7.96;100.00;99477.56;102416;1311;61392;-75
2021/11/20 06:04:17;;;;;;;19.80;17.50;;;;;;;7.97;100.00;99474.19;102283;1313;76206;-75
2021/11/20 06:06:44;;;;;;;19.20;17.20;;;;;;;7.97;100.00;99479.66;102289;1311;71482;-75
2021/11/20 06:09:12;;;;;;;19.80;16.90;;;;;;;7.97;100.00;99480.89;102310;1317;73508;-75
2021/11/20 06:11:38;;;;;;;19.10;17.10;;;;;;;7.97;100.00;99479.27;102380;1314;61314;-74
2021/11/20 06:14:05;;;;;;;19.70;16.40;;;;;;;7.97;100.00;99487.59;102249;1310;61290;-75
2021/11/20 06:16:33;;;;;;;19.50;17.60;;;;;;;7.98;100.00;99494.63;102328;1313;75753;-75
2021/11/20 06:19:00;;;;;;;19.70;17.40;;;;;;;7.98;100.00;99498.36;101641;1310;68181;-74
2021/11/20 06:21:27;;;;;;;21.40;19.30;;;;;;;7.99;100.00;99501.68;102284;1310;74044;-75
2021/11/20 06:23:54;;;;;;;18.00;16.20;;;;;;;8.01;100.00;99508.85;102187;1313;61327;-75
2021/11/20 06:26:22;;;;;;;21.90;19.00;;;;;;;8.02;100.00;99509.47;102304;1310;61304;-73
2021/11/20 06:28:49;;;;;;;18.00;16.20;;;;;;;8.05;100.00;99512.70;102329;1316;76709;-74
2021/11/20 06:31:16;;;;;;;18.80;16.30;;;;;;;8.06;100.00;99513.16;102277;1310;69508;-74
2021/11/20 06:33:43;;;;;;;20.80;17.50;;;;;;;8.08;100.00;99515.73;102345;1310;74576;-74
2021/11/20 06:36:10;;;;;;;19.40;16.70;;;;;;;8.09;100.00;99520.28;102352;1314;61329;-75
2021/11/20 06:38:39;;;;;;;18.30;16.40;;;;;;;8.10;100.00;99522.34;102445;1310;61361;-74
2021/11/20 06:41:08;;;;;;;19.00;17.10;;;;;;;8.11;100.00;99517.71;101894;1317;76934;-74
2021/11/20 06:43:36;;;;;;;19.10;17.10;;;;;;;8.13;100.00;99517.09;102369;1310;69609;-73
2021/11/20 06:46:07;;;;;;;20.00;17.90;;;;;;;8.15;100.00;99517.15;102498;1310;73471;-73
2021/11/20 06:48:35;;;;;;;20.50;18.40;;;;;;;8.16;100.00;99516.05;102088;1317;61429;-73
2021/11/20 06:51:03;;;;;;;18.70;16.80;;;;;;;8.18;100.00;99522.14;102481;1310;61274;-73
2021/11/20 06:53:31;;;;;;;18.70;16.40;;;;;;;8.20;100.00;99524.55;102641;1310;76366;-74
2021/11/20 06:55:58;;;;;;;18.70;16.90;;;;;;;8.22;100.00;99522.30;102566;1310;70503;-75
2021/11/20 07:01:09;;;;;;;18.80;17.00;;;;;;;8.27;100.00;99525.94;102651;1314;62808;-74
2021/11/20 07:03:41;;;;;;;18.00;16.30;;;;;;;8.31;100.00;99527.73;102415;1315;61741;-74
2021/11/20 07:06:13;;;;;;;18.00;16.10;;;;;;;8.34;100.00;99521.16;102584;1314;76428;-74
2021/11/20 07:08:42;;;;;;;18.70;16.70;;;;;;;8.37;100.00;99523.89;103092;1311;69654;-75
2021/11/20 07:11:09;;;;;;;22.00;18.00;;;;;;;8.38;100.00;99530.40;102850;1314;74149;-75
2021/11/20 07:13:36;;;;;;;20.10;17.90;;;;;;;8.42;100.00;99541.05;105219;1310;61291;-74
2021/11/20 07:16:05;;;;;;;20.30;18.30;;;;;;;8.45;100.00;99541.77;105084;1310;61218;-74
2021/11/20 07:18:32;;;;;;;21.90;19.50;;;;;;;8.49;100.00;99546.19;105668;1314;76392;-74
2021/11/20 07:20:59;;;;;;;19.00;17.00;;;;;;;8.53;100.00;99551.13;104634;1310;69774;-75
2021/11/20 07:23:29;;;;;;;18.20;16.30;;;;;;;8.56;100.00;99553.62;102512;1310;73472;-73
2021/11/20 07:25:59;;;;;;;20.60;18.00;;;;;;;8.61;100.00;99555.33;102270;1313;61510;-75
2021/11/20 07:28:27;;;;;;;18.60;16.70;;;;;;;8.68;100.00;99555.49;102897;1310;62368;-75
2021/11/20 07:30:54;;;;;;;19.20;16.80;;;;;;;8.72;100.00;99556.52;102844;1310;76759;-74
2021/11/20 07:33:21;;;;;;;19.60;17.50;;;;;;;8.76;100.00;99559.17;102658;1316;71008;-75
2021/11/20 07:35:51;;;;;;;20.10;18.10;;;;;;;8.81;100.00;99560.52;102437;1314;72978;-75
2021/11/20 07:38:26;;;;;;;18.90;16.90;;;;;;;8.86;100.00;99554.92;102564;1310;61293;-75
2021/11/20 07:40:53;;;;;;;17.50;15.70;;;;;;;8.91;100.00;99558.05;102465;1311;61988;-74
2021/11/20 07:43:19;;;;;;;17.50;15.70;;;;;;;8.97;100.00;99555.80;102358;1310;76367;-75
2021/11/20 07:45:46;;;;;;;18.20;16.30;;;;;;;9.04;100.00;99557.92;102368;1310;70502;-75
2021/11/20 07:48:18;;;;;;;20.40;17.20;;;;;;;9.09;100.00;99554.46;101903;1317;71551;-75
2021/11/20 07:50:46;;;;;;;19.30;17.20;;;;;;;9.13;100.00;99548.23;102305;1310;61401;-74
2021/11/20 07:53:14;;;;;;;17.90;16.00;;;;;;;9.18;100.00;99548.32;102317;1310;61253;-75
2021/11/20 07:55:41;;;;;;;17.10;15.10;;;;;;;9.24;100.00;99545.52;102374;1310;75451;-74
2021/11/20 07:58:08;;;;;;;19.00;15.60;;;;;;;9.30;100.00;99543.63;102415;1310;68622;-75
2021/11/20 08:00:37;;;;;;;16.40;14.70;;;;;;;9.36;100.00;99540.30;101858;1315;72188;-74
2021/11/20 08:03:09;;;;;;;17.40;15.50;;;;;;;9.43;100.00;99538.84;102452;1314;61613;-74
2021/11/20 08:05:36;;;;;;;17.80;15.50;;;;;;;9.48;100.00;99544.79;102351;1313;61444;-75
2021/11/20 08:08:03;;;;;;;20.40;16.80;;;;;;;9.52;100.00;99542.81;102351;1311;75661;-76
2021/11/20 08:10:33;;;;;;;17.10;15.20;;;;;;;9.58;100.00;99542.10;102419;1314;70579;-74
2021/11/20 08:13:00;;;;;;;19.30;16.80;;;;;;;9.66;100.00;99541.14;102468;1316;74294;-75
2021/11/20 08:15:28;;;;;;;18.30;16.20;;;;;;;9.73;100.00;99540.60;102296;1309;61298;-74
2021/11/20 08:17:54;;;;;;;17.60;15.80;;;;;;;9.76;100.00;99539.19;102338;1311;62097;-76
2021/11/20 08:20:25;;;;;;;17.80;15.70;;;;;;;9.76;100.00;99540.77;102345;1313;75417;-75
2021/11/20 08:22:52;;;;;;;18.20;15.60;;;;;;;9.79;100.00;99538.84;102396;1310;70445;-75
2021/11/20 08:25:23;;;;;;;16.30;14.60;;;;;;;9.80;100.00;99543.23;102345;1311;74044;-76
2021/11/20 08:27:50;;;;;;;15.10;13.40;;;;;;;9.78;100.00;99541.40;102425;1310;61328;-76
2021/11/20 08:30:22;;;;;;;14.00;12.60;;;;;;;9.78;100.00;99543.36;102325;1310;61324;-75
2021/11/20 08:32:50;;;;;;;17.30;13.90;;;;;;;9.82;100.00;99545.77;101990;1316;75555;-75
2021/11/20 08:35:18;;;;;;;14.10;12.50;;;;;;;9.81;100.00;99541.93;102040;1313;69724;-75
2021/11/20 08:37:44;;;;;;;14.60;12.90;;;;;;;9.85;100.00;99539.92;102059;1310;72427;-74
2021/11/20 08:40:13;;;;;;;15.40;13.00;;;;;;;9.88;100.00;99538.17;102311;1310;61316;-74
2021/11/20 08:42:41;;;;;;;15.00;13.30;;;;;;;9.91;100.00;99538.53;102342;1310;62098;-75
2021/11/20 08:45:12;;;;;;;13.80;12.40;;;;;;;9.92;100.00;99545.42;102322;1313;76620;-74
2021/11/20 08:47:38;;;;;;;;;;;;;;;9.98;100.00;99544.20;102035;1317;70831;-74
2021/11/20 08:50:09;;;;;;;19.00;15.20;;;;;;;10.04;100.00;99547.94;102290;1310;61340;-74
2021/11/20 08:52:35;;;;;;;18.80;13.50;;;;;;;10.12;100.00;99551.41;102329;1313;61510;-76
2021/11/20 08:55:03;;;;;;;21.80;14.40;;;;;;;10.18;99.93;99551.05;102323;1311;61341;-75
2021/11/20 08:57:29;;;;;;;19.80;13.80;;;;;;;10.22;99.86;99552.77;102221;1314;75459;-75
2021/11/20 08:59:56;;;;;;;14.60;12.80;;;;;;;10.21;99.98;99547.02;102341;1310;68460;-74
2021/11/20 09:02:34;;;;;;;21.50;14.10;;;;;;;10.18;99.91;99547.67;102335;1311;74320;-74
2021/11/20 09:05:12;;;;;;;15.20;12.80;;;;;;;10.25;99.98;99537.90;101906;1310;61406;-74
2021/11/20 09:07:44;;;;;;;16.50;13.40;;;;;;;10.26;99.77;99541.04;102189;1313;62480;-75
2021/11/20 09:10:38;;;;;;;15.70;13.50;;;;;;;10.30;99.65;99539.91;102321;1315;75607;-74
2021/11/20 09:13:08;;;;;;;18.90;14.20;;;;;;;10.34;99.80;99544.86;101948;1317;69633;-75
2021/11/20 09:15:40;;;;;;;15.40;13.80;;;;;;;10.31;99.51;99549.80;102241;1311;74669;-74
2021/11/20 09:18:08;;;;;;;17.60;14.80;;;;;;;10.27;99.36;99548.98;101929;1318;61471;-75
2021/11/20 09:20:36;;;;;;;16.60;14.90;;;;;;;10.27;99.57;99549.70;102324;1310;61441;-74
2021/11/20 09:23:04;;;;;;;18.20;14.50;;;;;;;10.29;99.45;99547.10;102355;1310;75393;-75
2021/11/20 09:25:31;;;;;;;17.00;15.20;;;;;;;10.38;99.47;99543.58;102324;1310;69213;-75
2021/11/20 09:28:01;;;;;;;17.20;14.20;;;;;;;10.45;99.19;99541.76;102402;1310;71926;-74
2021/11/20 09:30:32;;;;;;;20.10;16.40;;;;;;;10.46;99.19;99537.26;102310;1310;61416;-75
2021/11/20 09:32:59;;;;;;;21.60;17.10;;;;;;;10.43;99.22;99541.17;102381;1311;61293;-76
2021/11/20 09:35:26;;;;;;;20.10;16.60;;;;;;;10.33;99.66;99544.00;102313;1310;75967;-75
2021/11/20 09:37:53;;;;;;;17.30;15.50;;;;;;;10.31;99.83;99542.00;102299;1310;70782;-75
2021/11/20 09:40:22;;;;;;;20.00;17.70;;;;;;;10.25;99.70;99540.38;102279;1310;74631;-75
2021/11/20 09:42:52;;;;;;;18.80;16.90;;;;;;;10.22;99.81;99533.77;102330;1311;61326;-75
2021/11/20 09:45:30;;;;;;;17.40;15.60;;;;;;;10.20;100.00;99539.24;102011;1313;61377;-73
2021/11/20 09:48:03;;;;;;;17.90;16.10;;;;;;;10.11;100.00;99535.82;102377;1316;75416;-76
2021/11/20 09:50:43;;;;;;;19.70;17.50;;;;;;;10.05;100.00;99535.62;102372;1310;70633;-74
2021/11/20 09:53:10;;;;;;;18.50;16.60;;;;;;;9.99;100.00;99534.54;101959;1316;73530;-74
2021/11/20 09:55:44;;;;;;;19.20;16.70;;;;;;;9.95;100.00;99539.76;102403;1310;61418;-74
2021/11/20 09:58:20;;;;;;;20.00;17.00;;;;;;;9.90;100.00;99541.64;102417;1310;61271;-73
2021/11/20 10:01:24;;;;;;;19.30;17.30;;;;;;;9.83;100.00;99542.14;102488;1310;76846;-74
2021/11/20 10:04:05;;;;;;;20.70;18.50;;;;;;;9.77;100.00;99542.17;102352;1310;70826;-74
2021/11/20 10:06:34;;;;;;;21.10;18.50;;;;;;;9.68;100.00;99539.81;102287;1309;73585;-74
2021/11/20 10:09:18;;;;;;;22.00;19.70;;;;;;;9.63;100.00;99537.20;102295;1311;61313;-74
2021/11/20 10:11:59;;;;;;;22.10;20.00;;;;;;;9.59;100.00;99533.34;102305;1310;61209;-74
2021/11/20 10:14:44;;;;;;;21.60;19.30;;;;;;;9.57;100.00;99535.40;102262;1310;76143;-74
2021/11/20 10:17:35;;;;;;;20.10;18.20;;;;;;;9.54;100.00;99533.27;102369;1310;69415;-74
2021/11/20 10:20:40;;;;;;;19.30;17.30;;;;;;;9.52;100.00;99528.61;102320;1309;74562;-75
2021/11/20 10:23:10;;;;;;;20.40;18.30;;;;;;;9.51;100.00;99527.61;101480;1320;61442;-75
2021/11/20 10:26:25;;;;;;;20.90;18.70;;;;;;;9.50;100.00;99526.55;101529;1319;61548;-75
2021/11/20 10:29:26;;;;;;;20.70;18.50;;;;;;;9.47;100.00;99520.34;100748;1325;75032;-75
2021/11/20 10:32:19;;;;;;;21.00;18.80;;;;;;;9.46;100.00;99512.81;100770;1325;69692;-75
2021/11/20 10:34:52;;;;;;;20.90;18.90;;;;;;;9.46;100.00;99508.20;100645;1327;73534;-75
2021/11/20 10:37:27;;;;;;;24.00;21.60;;;;;;;9.48;100.00;99501.52;100699;1328;61456;-76
2021/11/20 10:39:58;;;;;;;24.40;21.50;;;;;;;9.55;100.00;99504.70;100826;1327;62241;-75
2021/11/20 10:42:34;;;;;;;22.40;19.90;;;;;;;9.59;100.00;99502.66;100849;1327;76920;-75
2021/11/20 10:45:21;;;;;;;22.00;19.70;;;;;;;9.62;100.00;99502.52;100679;1331;69702;-75
2021/11/20 10:48:08;;;;;;;23.90;21.30;;;;;;;9.65;100.00;99499.65;100696;1333;72949;-75
2021/11/20 10:50:54;;;;;;;24.00;21.40;;;;;;;9.69;100.00;99499.45;100774;1327;61637;-74
2021/11/20 10:53:32;;;;;;;26.10;23.50;;;;;;;9.71;100.00;99494.74;100725;1328;61315;-74
2021/11/20 10:56:20;;;;;;;27.00;22.90;;;;;;;9.73;100.00;99490.40;100798;1327;76588;-74
2021/11/20 10:59:16;;;;;;;27.40;23.00;;;;;;;9.76;100.00;99489.34;101673;1319;70209;-74
2021/11/20 11:02:18;;;;;;;35.20;28.10;;;;;;;9.76;100.00;99487.04;100797;1324;73603;-74
2021/11/20 11:04:57;;;;;;;33.30;28.80;;;;;;;9.79;100.00;99484.89;100898;1325;61447;-75
2021/11/20 11:07:35;;;;;;;33.90;28.50;;;;;;;9.78;100.00;99482.65;101888;1319;61375;-75
2021/11/20 11:10:08;;;;;;;29.30;25.90;;;;;;;9.79;100.00;99477.08;101844;1317;74879;-75
2021/11/20 11:13:01;;;;;;;28.50;25.40;;;;;;;9.81;100.00;99468.46;101827;1319;70830;-76
2021/11/20 11:16:03;;;;;;;27.40;24.40;;;;;;;9.89;100.00;99464.27;101384;1319;73459;-76
2021/11/20 11:18:44;;;;;;;27.00;22.60;;;;;;;10.02;100.00;99464.64;102299;1319;61254;-87
2021/11/20 11:21:55;;;;;;;25.60;23.00;;;;;;;10.04;100.00;99466.45;102094;1319;62171;-84
2021/11/20 11:24:33;;;;;;;26.50;23.70;;;;;;;10.03;100.00;99462.59;102126;1320;75518;-84
2021/11/20 11:27:11;;;;;;;25.40;22.30;;;;;;;10.04;100.00;99461.46;102169;1319;70672;-83
2021/11/20 11:29:58;;;;;;;25.10;21.70;;;;;;;10.11;100.00;99460.57;102253;1319;72871;-82
2021/11/20 11:32:30;;;;;;;21.30;19.20;;;;;;;10.13;100.00;99460.96;102285;1317;61433;-85
2021/11/20 11:35:19;;;;;;;22.80;20.30;;;;;;;10.15;100.00;99463.72;102233;1319;62193;-82